createdAt,value
2023-01-15T00:00:26.251Z,10.40
2023-01-15T00:03:14.401Z,10.40
2023-01-15T00:06:04.045Z,10.40
2023-01-15T00:08:53.100Z,10.40
2023-01-15T00:11:42.922Z,10.40
2023-01-15T00:14:31.254Z,10.40
2023-01-15T00:17:19.443Z,10.40
2023-01-15T00:20:08.584Z,10.50
2023-01-15T00:22:56.895Z,10.40
2023-01-15T00:26:02.547Z,10.50
2023-01-15T00:28:52.051Z,10.40
2023-01-15T00:31:40.565Z,10.40
2023-01-15T00:34:29.938Z,10.40
2023-01-15T00:37:18.110Z,10.40
2023-01-15T00:40:07.305Z,10.40
2023-01-15T00:42:55.440Z,10.40
2023-01-15T00:45:45.640Z,10.40
2023-01-15T00:48:33.793Z,10.40
2023-01-15T00:51:22.022Z,10.40
2023-01-15T00:54:10.225Z,10.50
2023-01-15T00:56:58.394Z,10.50
2023-01-15T00:59:46.582Z,10.50
2023-01-15T01:02:36.166Z,10.50
2023-01-15T01:05:24.361Z,10.50
2023-01-15T01:08:13.986Z,10.50
2023-01-15T01:11:03.955Z,10.50
2023-01-15T01:13:52.102Z,10.40
2023-01-15T01:16:41.999Z,10.40
2023-01-15T01:19:31.509Z,10.40
2023-01-15T01:22:19.727Z,10.40
2023-01-15T01:25:09.060Z,10.40
2023-01-15T01:27:57.223Z,10.40
2023-01-15T01:30:45.393Z,10.30
2023-01-15T01:33:33.527Z,10.30
2023-01-15T01:36:28.806Z,10.20
2023-01-15T01:39:18.489Z,10.10
2023-01-15T01:42:12.902Z,10.10
2023-01-15T01:45:25.092Z,10.10
2023-01-15T01:48:14.614Z,9.90
2023-01-15T01:51:05.951Z,9.80
2023-01-15T01:53:56.024Z,9.80
2023-01-15T01:56:44.349Z,9.80
2023-01-15T01:59:33.278Z,9.80
2023-01-15T02:02:24.081Z,9.70
2023-01-15T02:05:16.656Z,9.70
2023-01-15T02:08:05.701Z,9.60
2023-01-15T02:10:56.902Z,9.60
2023-01-15T02:13:52.230Z,9.50
2023-01-15T02:16:47.090Z,9.50
2023-01-15T02:19:46.694Z,9.40
2023-01-15T02:22:45.732Z,9.30
2023-01-15T02:25:42.860Z,9.20
2023-01-15T02:28:35.008Z,9.10
2023-01-15T02:31:27.990Z,9.00
2023-01-15T02:34:21.984Z,8.80
2023-01-15T02:37:15.615Z,8.60
2023-01-15T02:40:06.452Z,8.20
2023-01-15T02:42:56.181Z,8.00
2023-01-15T02:45:49.840Z,7.80
2023-01-15T02:48:40.372Z,7.70
2023-01-15T02:51:34.601Z,7.50
2023-01-15T02:54:26.322Z,7.30
2023-01-15T02:57:16.622Z,7.20
2023-01-15T03:00:10.596Z,7.00
2023-01-15T03:03:07.893Z,6.90
2023-01-15T03:06:02.527Z,6.90
2023-01-15T03:08:51.230Z,6.70
2023-01-15T03:11:45.300Z,6.60
2023-01-15T03:14:39.485Z,6.50
2023-01-15T03:17:35.758Z,6.40
2023-01-15T03:20:28.537Z,6.30
2023-01-15T03:23:19.068Z,6.20
2023-01-15T03:26:07.539Z,6.00
2023-01-15T03:28:56.939Z,5.90
2023-01-15T03:31:45.549Z,5.80
2023-01-15T03:34:38.984Z,5.70
2023-01-15T03:37:29.278Z,5.60
2023-01-15T03:40:18.026Z,5.60
2023-01-15T03:43:30.098Z,5.60
2023-01-15T03:46:35.027Z,5.70
2023-01-15T03:49:32.874Z,5.60
2023-01-15T03:52:26.948Z,5.60
2023-01-15T03:55:19.815Z,5.70
2023-01-15T03:58:14.202Z,5.70
2023-01-15T04:01:04.760Z,5.70
2023-01-15T04:03:55.615Z,5.70
2023-01-15T04:06:45.060Z,5.70
2023-01-15T04:09:37.713Z,5.60
2023-01-15T04:12:28.123Z,5.60
2023-01-15T04:15:17.106Z,5.60
2023-01-15T04:18:05.368Z,5.60
2023-01-15T04:20:54.730Z,5.60
2023-01-15T04:23:42.927Z,5.70
2023-01-15T04:26:31.089Z,5.70
2023-01-15T04:29:20.674Z,5.70
2023-01-15T04:32:08.870Z,5.70
2023-01-15T04:34:57.049Z,5.80
2023-01-15T04:37:45.251Z,5.80
2023-01-15T04:40:50.867Z,5.80
2023-01-15T04:43:56.678Z,5.80
2023-01-15T04:46:47.832Z,5.80
2023-01-15T04:49:36.025Z,5.80
2023-01-15T04:52:24.241Z,5.80
2023-01-15T04:55:12.871Z,5.80
2023-01-15T04:58:01.039Z,5.80
2023-01-15T05:00:49.196Z,5.80
2023-01-15T05:03:39.962Z,5.80
2023-01-15T05:06:28.266Z,5.80
2023-01-15T05:09:16.526Z,5.80
2023-01-15T05:12:05.111Z,5.80
2023-01-15T05:14:53.503Z,5.80
2023-01-15T05:17:41.676Z,5.70
2023-01-15T05:20:31.400Z,5.70
2023-01-15T05:23:19.549Z,5.70
2023-01-15T05:26:07.915Z,5.70
2023-01-15T05:28:57.991Z,5.70
2023-01-15T05:31:46.307Z,5.70
2023-01-15T05:34:34.459Z,5.80
2023-01-15T05:37:23.991Z,5.70
2023-01-15T05:40:13.169Z,5.80
2023-01-15T05:43:01.312Z,5.80
2023-01-15T05:45:49.485Z,5.80
2023-01-15T05:48:37.677Z,5.80
2023-01-15T05:51:25.826Z,5.80
2023-01-15T05:54:17.966Z,5.90
2023-01-15T05:57:06.222Z,5.90
2023-01-15T05:59:55.428Z,5.90
2023-01-15T06:02:43.623Z,5.80
2023-01-15T06:05:31.858Z,5.90
2023-01-15T06:08:20.020Z,5.90
2023-01-15T06:11:11.149Z,5.90
2023-01-15T06:13:59.231Z,5.90
2023-01-15T06:16:47.609Z,5.90
2023-01-15T06:19:35.795Z,5.90
2023-01-15T06:22:23.982Z,5.90
2023-01-15T06:25:12.178Z,5.90
2023-01-15T06:28:01.788Z,5.90
2023-01-15T06:30:50.000Z,5.90
2023-01-15T06:33:38.297Z,5.90
2023-01-15T06:36:27.859Z,5.90
2023-01-15T06:39:16.426Z,6.00
2023-01-15T06:42:22.713Z,6.00
2023-01-15T06:45:27.119Z,6.00
2023-01-15T06:48:15.320Z,6.00
2023-01-15T06:51:03.603Z,6.00
2023-01-15T06:53:51.848Z,6.00
2023-01-15T06:56:40.033Z,6.00
2023-01-15T06:59:28.197Z,6.10
2023-01-15T07:02:18.443Z,6.10
2023-01-15T07:05:07.148Z,6.10
2023-01-15T07:07:55.318Z,6.10
2023-01-15T07:10:43.555Z,6.10
2023-01-15T07:13:32.021Z,6.10
2023-01-15T07:16:28.705Z,6.10
2023-01-15T07:19:19.120Z,6.10
2023-01-15T07:22:08.359Z,6.10
2023-01-15T07:24:56.763Z,6.10
2023-01-15T07:27:46.700Z,6.20
2023-01-15T07:30:34.911Z,6.20
2023-01-15T07:33:23.050Z,6.30
2023-01-15T07:36:12.596Z,6.20
2023-01-15T07:39:00.882Z,6.30
2023-01-15T07:42:08.718Z,6.30
2023-01-15T07:45:14.415Z,6.30
2023-01-15T07:48:19.974Z,6.30
2023-01-15T07:51:08.141Z,6.30
2023-01-15T07:53:57.685Z,6.30
2023-01-15T07:56:45.905Z,6.30
2023-01-15T07:59:34.147Z,6.30
2023-01-15T08:02:22.331Z,6.30
2023-01-15T08:05:12.454Z,6.20
2023-01-15T08:08:00.651Z,6.20
2023-01-15T08:11:07.930Z,6.20
2023-01-15T08:14:13.432Z,6.20
2023-01-15T08:17:01.632Z,6.20
2023-01-15T08:19:49.813Z,6.20
2023-01-15T08:22:38.563Z,6.20
2023-01-15T08:25:26.974Z,6.20
2023-01-15T08:28:16.478Z,6.30
2023-01-15T08:31:06.777Z,6.30
2023-01-15T08:33:55.220Z,6.40
2023-01-15T08:36:43.435Z,6.40
2023-01-15T08:39:31.743Z,6.40
2023-01-15T08:42:20.205Z,6.40
2023-01-15T08:45:10.921Z,6.40
2023-01-15T08:48:00.397Z,6.50
2023-01-15T08:50:50.446Z,6.50
2023-01-15T08:53:39.380Z,6.60
2023-01-15T08:56:27.563Z,6.50
2023-01-15T08:59:15.791Z,6.60
2023-01-15T09:02:05.470Z,6.60
2023-01-15T09:04:53.727Z,6.60
2023-01-15T09:07:41.962Z,6.60
2023-01-15T09:10:30.166Z,6.70
2023-01-15T09:13:18.632Z,6.70
2023-01-15T09:16:09.952Z,6.80
2023-01-15T09:19:00.171Z,6.80
2023-01-15T09:21:48.387Z,6.80
2023-01-15T09:24:36.579Z,6.90
2023-01-15T09:27:24.787Z,6.90
2023-01-15T09:30:18.910Z,6.90
2023-01-15T09:33:07.089Z,6.90
2023-01-15T09:35:56.981Z,7.00
2023-01-15T09:38:45.208Z,7.00
2023-01-15T09:42:09.077Z,7.00
2023-01-15T09:45:19.311Z,6.90
2023-01-15T09:48:30.020Z,7.00
2023-01-15T09:51:29.459Z,7.00
2023-01-15T09:54:31.237Z,7.00
2023-01-15T09:57:21.816Z,7.00
2023-01-15T10:00:16.936Z,7.00
2023-01-15T10:03:12.477Z,7.00
2023-01-15T10:06:09.901Z,7.00
2023-01-15T10:09:05.399Z,7.00
2023-01-15T10:12:17.618Z,7.00
2023-01-15T10:15:18.746Z,6.90
2023-01-15T10:18:08.767Z,7.00
2023-01-15T10:21:09.843Z,7.10
2023-01-15T10:24:06.538Z,7.10
2023-01-15T10:26:57.419Z,7.10
2023-01-15T10:29:48.741Z,7.10
2023-01-15T10:33:01.098Z,7.10
2023-01-15T10:35:56.709Z,7.20
2023-01-15T10:38:55.149Z,7.20
2023-01-15T10:41:56.866Z,7.20
2023-01-15T10:44:53.619Z,7.20
2023-01-15T10:47:44.483Z,7.20
2023-01-15T10:50:34.209Z,7.20
2023-01-15T10:53:32.039Z,7.30
2023-01-15T10:56:30.312Z,7.30
2023-01-15T10:59:23.107Z,7.40
2023-01-15T11:02:26.149Z,7.40
2023-01-15T11:05:17.254Z,7.40
2023-01-15T11:08:45.153Z,7.40
2023-01-15T11:11:21.327Z,7.40
2023-01-15T11:14:27.133Z,7.40
2023-01-15T11:17:34.228Z,7.40
2023-01-15T11:20:29.128Z,7.40
2023-01-15T11:23:20.338Z,7.40
2023-01-15T11:26:08.682Z,7.50
2023-01-15T11:28:58.359Z,7.50
2023-01-15T11:31:46.567Z,7.60
2023-01-15T11:34:38.697Z,7.60
2023-01-15T11:37:27.692Z,7.60
2023-01-15T11:40:18.530Z,7.60
2023-01-15T11:43:38.571Z,7.60
2023-01-15T11:46:49.404Z,7.60
2023-01-15T11:49:56.309Z,7.60
2023-01-15T11:52:48.846Z,7.70
2023-01-15T11:55:37.614Z,7.70
2023-01-15T11:58:25.919Z,7.70
2023-01-15T12:01:16.814Z,7.70
2023-01-15T12:04:07.039Z,7.70
2023-01-15T12:06:56.892Z,7.70
2023-01-15T12:10:14.217Z,7.70
2023-01-15T12:13:09.326Z,7.70
2023-01-15T12:16:08.103Z,7.70
2023-01-15T12:18:59.662Z,7.70
2023-01-15T12:22:11.970Z,7.70
2023-01-15T12:25:23.011Z,7.90
2023-01-15T12:28:16.003Z,8.00
2023-01-15T12:31:07.484Z,8.10
2023-01-15T12:34:01.649Z,8.10
2023-01-15T12:36:53.709Z,8.00
2023-01-15T12:39:48.864Z,7.90
2023-01-15T12:42:55.953Z,7.90
2023-01-15T12:45:47.714Z,7.80
2023-01-15T12:48:41.003Z,7.90
2023-01-15T12:51:36.255Z,7.90
2023-01-15T12:54:29.896Z,7.90
2023-01-15T12:57:26.983Z,8.00
2023-01-15T13:00:20.669Z,8.00
2023-01-15T13:03:20.162Z,8.00
2023-01-15T13:06:09.807Z,8.10
2023-01-15T13:09:03.038Z,8.10
2023-01-15T13:11:51.258Z,8.00
2023-01-15T13:14:41.004Z,8.10
2023-01-15T13:17:37.199Z,8.10
2023-01-15T13:20:46.742Z,8.10
2023-01-15T13:23:47.964Z,8.10
2023-01-15T13:26:47.236Z,8.10
2023-01-15T13:29:46.780Z,8.20
2023-01-15T13:32:42.327Z,8.20
2023-01-15T13:35:33.747Z,8.20
2023-01-15T13:38:24.993Z,8.10
2023-01-15T13:41:40.380Z,8.20
2023-01-15T13:44:35.664Z,8.20
2023-01-15T13:47:28.156Z,8.30
2023-01-15T13:50:19.131Z,8.30
2023-01-15T13:53:15.874Z,8.30
2023-01-15T13:56:07.900Z,8.30
2023-01-15T13:58:57.528Z,8.40
2023-01-15T14:01:45.748Z,8.40
2023-01-15T14:04:38.656Z,8.50
2023-01-15T14:07:35.287Z,8.30
2023-01-15T14:10:40.430Z,8.20
2023-01-15T14:13:44.660Z,8.10
2023-01-15T14:16:51.233Z,8.20
2023-01-15T14:20:24.982Z,8.60
2023-01-15T14:23:28.713Z,9.10
2023-01-15T14:26:25.561Z,9.40
2023-01-15T14:29:50.874Z,9.60
2023-01-15T14:32:55.757Z,9.80
2023-01-15T14:35:48.873Z,9.30
2023-01-15T14:38:38.225Z,9.50
2023-01-15T14:41:28.762Z,9.90
2023-01-15T14:44:17.153Z,9.50
2023-01-15T14:47:07.114Z,9.00
2023-01-15T14:50:03.875Z,8.50
2023-01-15T14:52:55.753Z,8.10
2023-01-15T14:55:49.143Z,7.80
2023-01-15T14:58:50.642Z,7.60
2023-01-15T15:01:44.145Z,7.40
2023-01-15T15:04:36.929Z,7.30
2023-01-15T15:07:28.324Z,7.20
2023-01-15T15:10:25.143Z,7.00
2023-01-15T15:13:20.359Z,6.90
2023-01-15T15:16:13.965Z,6.80
2023-01-15T15:19:07.556Z,6.70
2023-01-15T15:22:00.842Z,6.70
2023-01-15T15:24:52.865Z,6.60
2023-01-15T15:27:42.428Z,6.60
2023-01-15T15:30:33.578Z,6.50
2023-01-15T15:33:22.819Z,6.50
2023-01-15T15:36:11.143Z,6.40
2023-01-15T15:39:01.090Z,6.40
2023-01-15T15:42:10.909Z,6.40
2023-01-15T15:45:18.906Z,6.30
2023-01-15T15:48:36.996Z,6.40
2023-01-15T15:51:33.835Z,6.40
2023-01-15T15:54:23.677Z,6.40
2023-01-15T15:57:17.388Z,6.40
2023-01-15T16:00:19.222Z,6.40
2023-01-15T16:03:18.508Z,6.50
2023-01-15T16:06:08.689Z,6.50
2023-01-15T16:09:01.567Z,6.50
2023-01-15T16:11:50.997Z,6.50
2023-01-15T16:14:43.161Z,6.50
2023-01-15T16:17:33.842Z,6.50
2023-01-15T16:20:23.235Z,6.60
2023-01-15T16:23:22.900Z,6.60
2023-01-15T16:26:19.633Z,6.60
2023-01-15T16:29:18.069Z,6.70
2023-01-15T16:32:12.263Z,6.70
2023-01-15T16:35:06.852Z,6.70
2023-01-15T16:37:57.444Z,6.70
2023-01-15T16:40:47.359Z,6.70
2023-01-15T16:43:52.662Z,6.70
2023-01-15T16:46:54.036Z,6.80
2023-01-15T16:49:42.354Z,6.70
2023-01-15T16:52:50.689Z,6.80
2023-01-15T16:55:42.537Z,6.80
2023-01-15T16:58:37.026Z,6.80
2023-01-15T17:01:33.442Z,6.80
2023-01-15T17:04:28.310Z,6.80
2023-01-15T17:07:20.767Z,6.80
2023-01-15T17:10:22.061Z,6.80
2023-01-15T17:13:19.049Z,6.70
2023-01-15T17:16:17.665Z,6.70
2023-01-15T17:19:08.126Z,6.70
2023-01-15T17:21:56.322Z,6.70
2023-01-15T17:24:51.105Z,6.70
2023-01-15T17:27:40.617Z,6.70
2023-01-15T17:30:31.157Z,6.70
2023-01-15T17:33:20.589Z,6.60
2023-01-15T17:36:10.132Z,6.70
2023-01-15T17:38:58.328Z,6.60
2023-01-15T17:41:46.587Z,6.70
2023-01-15T17:44:36.267Z,6.70
2023-01-15T17:47:24.510Z,6.70
2023-01-15T17:50:13.479Z,6.70
2023-01-15T17:53:05.135Z,6.70
2023-01-15T17:56:10.984Z,6.80
2023-01-15T17:59:17.033Z,6.80
2023-01-15T18:02:29.892Z,6.80
2023-01-15T18:05:27.112Z,6.80
2023-01-15T18:08:18.685Z,6.70
2023-01-15T18:11:06.878Z,6.70
2023-01-15T18:13:56.050Z,6.60
2023-01-15T18:16:44.477Z,6.70
2023-01-15T18:19:34.022Z,6.60
2023-01-15T18:22:22.194Z,6.60
2023-01-15T18:25:12.155Z,6.60
2023-01-15T18:28:00.318Z,6.60
2023-01-15T18:30:48.625Z,6.60
2023-01-15T18:33:36.790Z,6.70
2023-01-15T18:36:26.406Z,6.60
2023-01-15T18:39:14.668Z,6.60
2023-01-15T18:42:20.554Z,6.60
2023-01-15T18:45:27.844Z,6.60
2023-01-15T18:48:15.996Z,6.60
2023-01-15T18:51:08.744Z,6.60
2023-01-15T18:53:58.248Z,6.60
2023-01-15T18:56:48.096Z,6.70
2023-01-15T18:59:36.505Z,6.70
2023-01-15T19:02:25.752Z,6.70
2023-01-15T19:05:17.027Z,6.70
2023-01-15T19:08:05.307Z,6.70
2023-01-15T19:10:54.843Z,6.80
2023-01-15T19:13:43.078Z,6.80
2023-01-15T19:16:48.794Z,6.90
2023-01-15T19:19:36.999Z,6.90
2023-01-15T19:22:42.900Z,6.90
2023-01-15T19:25:33.367Z,6.90
2023-01-15T19:28:22.963Z,7.00
2023-01-15T19:31:29.162Z,7.00
2023-01-15T19:34:33.063Z,6.90
2023-01-15T19:37:22.207Z,7.00
2023-01-15T19:40:13.568Z,6.90
2023-01-15T19:43:19.408Z,6.90
2023-01-15T19:46:28.401Z,7.00
2023-01-15T19:49:38.735Z,6.90
2023-01-15T19:52:35.816Z,6.90
2023-01-15T19:55:26.308Z,6.80
2023-01-15T19:58:16.243Z,6.80
2023-01-15T20:01:05.917Z,6.70
2023-01-15T20:03:55.564Z,6.70
2023-01-15T20:06:43.820Z,6.60
2023-01-15T20:09:32.001Z,6.60
2023-01-15T20:12:38.046Z,6.60
2023-01-15T20:15:26.631Z,6.50
2023-01-15T20:18:15.041Z,6.50
2023-01-15T20:21:04.749Z,6.40
2023-01-15T20:23:52.963Z,6.40
2023-01-15T20:26:41.150Z,6.40
2023-01-15T20:29:29.422Z,6.30
2023-01-15T20:32:17.624Z,6.30
2023-01-15T20:35:06.648Z,6.30
2023-01-15T20:37:56.226Z,6.20
2023-01-15T20:40:44.415Z,6.20
2023-01-15T20:43:51.481Z,6.20
2023-01-15T20:46:39.662Z,6.20
2023-01-15T20:49:28.663Z,6.20
2023-01-15T20:52:16.852Z,6.20
2023-01-15T20:55:07.323Z,6.20
2023-01-15T20:57:55.494Z,6.20
2023-01-15T21:00:43.643Z,6.20
2023-01-15T21:03:31.885Z,6.10
2023-01-15T21:06:20.689Z,6.10
2023-01-15T21:09:09.102Z,6.10
2023-01-15T21:11:58.695Z,6.10
2023-01-15T21:14:47.100Z,6.10
2023-01-15T21:17:35.545Z,6.00
2023-01-15T21:20:23.996Z,6.00
2023-01-15T21:23:12.616Z,5.90
2023-01-15T21:26:01.715Z,5.80
2023-01-15T21:28:54.447Z,5.70
2023-01-15T21:31:44.416Z,5.70
2023-01-15T21:34:32.735Z,5.60
2023-01-15T21:37:22.175Z,5.60
2023-01-15T21:40:12.047Z,5.60
2023-01-15T21:43:17.995Z,5.70
2023-01-15T21:46:07.971Z,5.60
2023-01-15T21:48:56.661Z,5.60
2023-01-15T21:51:44.867Z,5.60
2023-01-15T21:54:34.059Z,5.70
2023-01-15T21:57:22.841Z,5.60
2023-01-15T22:00:13.111Z,5.70
2023-01-15T22:03:02.637Z,5.70
2023-01-15T22:05:50.877Z,5.60
2023-01-15T22:08:39.097Z,5.60
2023-01-15T22:11:43.564Z,5.70
2023-01-15T22:14:33.339Z,5.60
2023-01-15T22:17:21.862Z,5.60
2023-01-15T22:20:12.608Z,5.50
2023-01-15T22:23:01.018Z,5.50
2023-01-15T22:25:49.978Z,5.40
2023-01-15T22:28:38.153Z,5.40
2023-01-15T22:31:26.632Z,5.30
2023-01-15T22:34:14.845Z,5.20
2023-01-15T22:37:04.541Z,5.20
2023-01-15T22:39:52.727Z,5.20
2023-01-15T22:42:40.881Z,5.20
2023-01-15T22:45:29.075Z,5.20
2023-01-15T22:48:17.272Z,5.20
2023-01-15T22:51:05.848Z,5.20
2023-01-15T22:53:56.230Z,5.30
2023-01-15T22:56:44.632Z,5.20
2023-01-15T22:59:32.834Z,5.30
2023-01-15T23:02:42.283Z,5.30
2023-01-15T23:05:30.480Z,5.20
2023-01-15T23:08:18.660Z,5.20
2023-01-15T23:11:11.832Z,5.10
2023-01-15T23:14:00.328Z,5.10
2023-01-15T23:16:48.644Z,5.10
2023-01-15T23:19:37.299Z,5.10
2023-01-15T23:22:25.497Z,5.00
2023-01-15T23:25:13.767Z,5.00
2023-01-15T23:28:03.348Z,5.00
2023-01-15T23:30:51.579Z,4.90
2023-01-15T23:33:39.844Z,4.90
2023-01-15T23:36:28.679Z,5.00
2023-01-15T23:39:16.851Z,5.00
2023-01-15T23:42:23.135Z,5.00
2023-01-15T23:45:30.614Z,5.00
2023-01-15T23:48:20.146Z,5.00
2023-01-15T23:51:08.319Z,4.90
2023-01-15T23:53:56.582Z,4.90
2023-01-15T23:56:46.193Z,4.80
2023-01-15T23:59:34.566Z,4.80
